createdAt,value
2022-08-26T00:02:25.000Z,33.72
2022-08-26T00:07:24.000Z,33.01
2022-08-26T00:12:25.000Z,32.33
2022-08-26T00:17:24.000Z,32.63
2022-08-26T00:22:24.000Z,32.58
2022-08-26T00:27:24.000Z,32.33
2022-08-26T00:32:25.000Z,33
2022-08-26T00:37:24.000Z,32.43
2022-08-26T00:42:24.000Z,32.51
2022-08-26T00:47:24.000Z,32.84
2022-08-26T00:52:25.000Z,33.35
2022-08-26T00:57:25.000Z,31.82
2022-08-26T01:02:24.000Z,32.92
2022-08-26T01:07:24.000Z,32.92
2022-08-26T01:12:25.000Z,34.18
2022-08-26T01:22:25.000Z,33.86
2022-08-26T01:27:25.000Z,33.99
2022-08-26T01:32:24.000Z,33.66
2022-08-26T01:37:24.000Z,33.45
2022-08-26T01:42:24.000Z,33.07
2022-08-26T01:47:25.000Z,34.81
2022-08-26T01:52:25.000Z,34.66
2022-08-26T01:57:25.000Z,33.61
2022-08-26T02:02:24.000Z,32.18
2022-08-26T02:07:25.000Z,31.99
2022-08-26T02:12:24.000Z,33.16
2022-08-26T02:17:25.000Z,33.87
2022-08-26T02:22:25.000Z,33.37
2022-08-26T02:27:25.000Z,32.26
2022-08-26T02:32:24.000Z,31.86
2022-08-26T02:37:24.000Z,32.93
2022-08-26T02:42:25.000Z,32.51
2022-08-26T02:47:24.000Z,32.36
2022-08-26T02:52:24.000Z,32.88
2022-08-26T02:57:24.000Z,32.8
2022-08-26T03:07:25.000Z,32.42
2022-08-26T03:12:24.000Z,33.19
2022-08-26T03:17:25.000Z,32.73
2022-08-26T03:22:24.000Z,31.69
2022-08-26T03:27:24.000Z,33.75
2022-08-26T03:32:25.000Z,33.24
2022-08-26T03:37:24.000Z,33.34
2022-08-26T03:42:24.000Z,35.21
2022-08-26T03:47:25.000Z,37.54
2022-08-26T03:52:25.000Z,37.85
2022-08-26T03:57:24.000Z,39.05
2022-08-26T04:02:24.000Z,41.68
2022-08-26T04:07:25.000Z,40.77
2022-08-26T04:12:25.000Z,46.17
2022-08-26T04:17:24.000Z,45.27
2022-08-26T04:22:24.000Z,44.99
2022-08-26T04:27:24.000Z,46.16
2022-08-26T04:32:24.000Z,45.75
2022-08-26T04:37:25.000Z,46.27
2022-08-26T04:42:24.000Z,49.09
2022-08-26T04:47:24.000Z,68.39
2022-08-26T04:52:24.000Z,133.56
2022-08-26T04:57:25.000Z,137.04
2022-08-26T05:02:24.000Z,110.59
2022-08-26T05:07:25.000Z,139.94
2022-08-26T05:12:24.000Z,135.52
2022-08-26T05:17:24.000Z,131.91
2022-08-26T05:22:25.000Z,128.55
2022-08-26T05:27:24.000Z,126.83
2022-08-26T05:32:24.000Z,115.4
2022-08-26T05:37:24.000Z,92.93
2022-08-26T05:42:24.000Z,82.03
2022-08-26T05:47:24.000Z,83.8
2022-08-26T05:52:25.000Z,74.31
2022-08-26T05:57:24.000Z,70.63
2022-08-26T06:02:24.000Z,59.73
2022-08-26T06:07:24.000Z,57.98
2022-08-26T06:12:24.000Z,57.45
2022-08-26T06:17:24.000Z,48.07
2022-08-26T06:27:25.000Z,40.95
2022-08-26T06:32:25.000Z,50.96
2022-08-26T06:37:24.000Z,40.81
2022-08-26T06:42:24.000Z,46.42
2022-08-26T06:47:25.000Z,43.88
2022-08-26T06:52:24.000Z,37.16
2022-08-26T06:57:24.000Z,24.77
2022-08-26T07:02:25.000Z,19.41
2022-08-26T07:12:24.000Z,21.67
2022-08-26T07:17:25.000Z,19.27
2022-08-26T07:22:25.000Z,20.59
2022-08-26T07:27:24.000Z,22.22
2022-08-26T07:32:24.000Z,20.91
2022-08-26T07:37:24.000Z,16.39
2022-08-26T07:42:25.000Z,14.21
2022-08-26T07:47:24.000Z,11.54
2022-08-26T07:52:24.000Z,11.16
2022-08-26T07:57:24.000Z,11.31
2022-08-26T08:02:25.000Z,11.06
2022-08-26T08:07:24.000Z,10.21
2022-08-26T08:12:24.000Z,10.53
2022-08-26T08:22:24.000Z,10.39
2022-08-26T08:27:25.000Z,10.07
2022-08-26T08:32:24.000Z,10.33
2022-08-26T08:37:25.000Z,10.9
2022-08-26T08:42:24.000Z,10.07
2022-08-26T08:47:24.000Z,10.07
2022-08-26T08:52:25.000Z,10.18
2022-08-26T08:57:25.000Z,8.94
2022-08-26T09:02:25.000Z,8.14
2022-08-26T09:07:25.000Z,8.28
2022-08-26T09:12:24.000Z,9.06
2022-08-26T09:17:25.000Z,9.76
2022-08-26T09:22:24.000Z,9.57
2022-08-26T09:27:25.000Z,10.02
2022-08-26T09:32:25.000Z,10.16
2022-08-26T09:37:24.000Z,9.54
2022-08-26T09:42:24.000Z,9.48
2022-08-26T09:47:24.000Z,9.59
2022-08-26T09:52:24.000Z,9.99
2022-08-26T09:57:24.000Z,10.18
2022-08-26T10:02:24.000Z,9.61
2022-08-26T10:07:24.000Z,9.35
2022-08-26T10:12:24.000Z,8.79
2022-08-26T10:17:24.000Z,9.08
2022-08-26T10:22:25.000Z,9.11
2022-08-26T10:27:24.000Z,9.12
2022-08-26T10:32:25.000Z,9.01
2022-08-26T10:37:24.000Z,10.16
2022-08-26T10:42:24.000Z,10.01
2022-08-26T10:47:24.000Z,9.43
2022-08-26T10:52:25.000Z,8.9
2022-08-26T10:57:25.000Z,8.73
2022-08-26T11:02:25.000Z,8.86
2022-08-26T11:07:24.000Z,9.15
2022-08-26T11:12:24.000Z,9.14
2022-08-26T11:17:24.000Z,9.17
2022-08-26T11:22:25.000Z,8.4
2022-08-26T11:27:25.000Z,7.4
2022-08-26T11:32:25.000Z,7.22
2022-08-26T11:37:25.000Z,7.21
2022-08-26T11:42:24.000Z,7.37
2022-08-26T11:47:25.000Z,8.34
2022-08-26T11:52:24.000Z,8.71
2022-08-26T11:57:25.000Z,8.78
2022-08-26T12:02:25.000Z,8.46
2022-08-26T12:07:24.000Z,8.05
2022-08-26T12:12:25.000Z,7.73
2022-08-26T12:17:24.000Z,8.25
2022-08-26T12:22:24.000Z,7.33
2022-08-26T12:27:24.000Z,6.84
2022-08-26T12:32:25.000Z,6.89
2022-08-26T12:37:24.000Z,6.99
2022-08-26T12:42:25.000Z,7.68
2022-08-26T12:47:24.000Z,7.89
2022-08-26T12:52:24.000Z,8.21
2022-08-26T12:57:24.000Z,8.42
2022-08-26T13:02:24.000Z,8.54
2022-08-26T13:07:25.000Z,8.68
2022-08-26T13:12:24.000Z,8.37
2022-08-26T13:17:25.000Z,8.28
2022-08-26T13:22:25.000Z,8.29
2022-08-26T13:27:25.000Z,7.99
2022-08-26T13:32:24.000Z,7.56
2022-08-26T13:37:24.000Z,7.8
2022-08-26T13:42:24.000Z,8.16
2022-08-26T13:47:24.000Z,8.63
2022-08-26T13:52:25.000Z,8.69
2022-08-26T13:57:24.000Z,8.33
2022-08-26T14:02:24.000Z,8.05
2022-08-26T14:07:24.000Z,8.71
2022-08-26T14:12:25.000Z,9.43
2022-08-26T14:17:25.000Z,11.81
2022-08-26T14:22:24.000Z,8.58
2022-08-26T14:32:24.000Z,8.62
2022-08-26T14:37:24.000Z,8.56
2022-08-26T14:42:24.000Z,8.56
2022-08-26T14:47:25.000Z,8.79
2022-08-26T14:52:25.000Z,8.62
2022-08-26T14:57:25.000Z,8.89
2022-08-26T15:02:24.000Z,8.73
2022-08-26T15:07:24.000Z,8.97
2022-08-26T15:12:24.000Z,8.72
2022-08-26T15:17:24.000Z,8.68
2022-08-26T15:22:24.000Z,9.2
2022-08-26T15:27:25.000Z,9.65
2022-08-26T15:32:24.000Z,10.16
2022-08-26T15:37:25.000Z,10.1
2022-08-26T15:47:24.000Z,10.34
2022-08-26T15:52:24.000Z,9.87
2022-08-26T15:57:24.000Z,10.73
2022-08-26T16:02:25.000Z,11.87
2022-08-26T16:07:24.000Z,12.57
2022-08-26T16:12:24.000Z,12.99
2022-08-26T16:17:25.000Z,12.22
2022-08-26T16:22:25.000Z,12.45
2022-08-26T16:27:24.000Z,12.7
2022-08-26T16:32:25.000Z,12.25
2022-08-26T16:37:24.000Z,13.04
2022-08-26T16:42:24.000Z,13.71
2022-08-26T16:47:25.000Z,13.79
2022-08-26T16:52:24.000Z,13.57
2022-08-26T16:57:25.000Z,13.19
2022-08-26T17:02:24.000Z,13.14
2022-08-26T17:07:24.000Z,13.22
2022-08-26T17:12:24.000Z,13.94
2022-08-26T17:17:24.000Z,13.66
2022-08-26T17:22:24.000Z,14.26
2022-08-26T17:27:24.000Z,14.42
2022-08-26T17:32:25.000Z,15.84
2022-08-26T17:37:25.000Z,15.95
2022-08-26T17:47:24.000Z,17.61
2022-08-26T17:52:24.000Z,21.76
2022-08-26T17:57:24.000Z,42.76
2022-08-26T18:02:24.000Z,74.79
2022-08-26T18:12:24.000Z,115.51
2022-08-26T18:17:24.000Z,136.53
2022-08-26T18:22:25.000Z,125.68
2022-08-26T18:27:24.000Z,57.47
2022-08-26T18:32:25.000Z,47.21
2022-08-26T18:37:25.000Z,48.09
2022-08-26T18:42:24.000Z,54.35
2022-08-26T18:47:24.000Z,47.99
2022-08-26T18:57:25.000Z,49.42
2022-08-26T19:02:24.000Z,58.03
2022-08-26T19:07:24.000Z,59.69
2022-08-26T19:12:24.000Z,60.86
2022-08-26T19:17:24.000Z,62.29
2022-08-26T19:22:24.000Z,93.6
2022-08-26T19:27:24.000Z,126.58
2022-08-26T19:32:25.000Z,52.24
2022-08-26T19:37:25.000Z,124.19
2022-08-26T19:42:24.000Z,121.47
2022-08-26T19:47:24.000Z,83.14
2022-08-26T19:52:24.000Z,70.19
2022-08-26T19:57:24.000Z,86.82
2022-08-26T20:02:25.000Z,94.1
2022-08-26T20:07:24.000Z,88.69
2022-08-26T20:12:25.000Z,90.25
2022-08-26T20:17:25.000Z,95.1
2022-08-26T20:22:25.000Z,92.93
2022-08-26T20:27:25.000Z,57.64
2022-08-26T20:32:24.000Z,54.52
2022-08-26T20:37:24.000Z,55.1
2022-08-26T20:42:25.000Z,60.63
2022-08-26T20:47:24.000Z,62.97
2022-08-26T20:52:24.000Z,66.48
2022-08-26T20:57:24.000Z,84.81
2022-08-26T21:02:24.000Z,81.14
2022-08-26T21:07:25.000Z,79.97
2022-08-26T21:12:24.000Z,74.36
2022-08-26T21:17:24.000Z,70.29
2022-08-26T21:22:25.000Z,65.73
2022-08-26T21:27:24.000Z,64.84
2022-08-26T21:32:25.000Z,74.55
2022-08-26T21:37:24.000Z,71.88
2022-08-26T21:42:25.000Z,64.71
2022-08-26T21:47:24.000Z,61.7
2022-08-26T21:52:24.000Z,73.94
2022-08-26T21:57:24.000Z,67.06
2022-08-26T22:02:24.000Z,74.17
2022-08-26T22:07:25.000Z,89.21
2022-08-26T22:12:25.000Z,137
2022-08-26T22:17:25.000Z,166.45
2022-08-26T22:22:25.000Z,200.34
2022-08-26T22:27:25.000Z,168.01
2022-08-26T22:32:24.000Z,128.92
2022-08-26T22:37:24.000Z,106.35
2022-08-26T22:42:24.000Z,105.01
2022-08-26T22:47:24.000Z,89.59
2022-08-26T22:52:24.000Z,79.82
2022-08-26T22:57:24.000Z,98.21
2022-08-26T23:02:24.000Z,135.85
2022-08-26T23:07:24.000Z,140.56
2022-08-26T23:12:25.000Z,140.25
2022-08-26T23:17:24.000Z,139.64
2022-08-26T23:22:24.000Z,164.51
2022-08-26T23:27:25.000Z,241.73
2022-08-26T23:32:24.000Z,231.18
2022-08-26T23:37:24.000Z,195.16
2022-08-26T23:42:24.000Z,178.69
2022-08-26T23:47:25.000Z,176.64
2022-08-26T23:52:25.000Z,214.85
2022-08-26T23:57:25.000Z,234.32
